sensor_id;sensor_type;location;lat;lon;timestamp;P1;durP1;ratioP1;P2;durP2;ratioP2
14294;SDS011;7231;59.370;18.016;2023-06-26T00:01:03;5.22;;;3.03;;
14294;SDS011;7231;59.370;18.016;2023-06-26T00:03:32;5.00;;;2.58;;
14294;SDS011;7231;59.370;18.016;2023-06-26T00:06:02;3.15;;;2.75;;
14294;SDS011;7231;59.370;18.016;2023-06-26T00:08:30;5.78;;;3.05;;
14294;SDS011;7231;59.370;18.016;2023-06-26T00:10:57;5.50;;;2.70;;
14294;SDS011;7231;59.370;18.016;2023-06-26T00:13:25;4.90;;;3.22;;
14294;SDS011;7231;59.370;18.016;2023-06-26T00:15:53;4.47;;;2.90;;
14294;SDS011;7231;59.370;18.016;2023-06-26T00:18:21;5.32;;;2.88;;
14294;SDS011;7231;59.370;18.016;2023-06-26T00:20:50;5.20;;;3.30;;
14294;SDS011;7231;59.370;18.016;2023-06-26T00:23:19;5.55;;;3.20;;
14294;SDS011;7231;59.370;18.016;2023-06-26T00:25:47;6.22;;;3.35;;
14294;SDS011;7231;59.370;18.016;2023-06-26T00:28:15;5.00;;;3.45;;
14294;SDS011;7231;59.370;18.016;2023-06-26T00:30:43;5.90;;;3.00;;
14294;SDS011;7231;59.370;18.016;2023-06-26T00:33:11;3.97;;;2.70;;
14294;SDS011;7231;59.370;18.016;2023-06-26T00:35:39;5.40;;;3.30;;
14294;SDS011;7231;59.370;18.016;2023-06-26T00:38:07;3.97;;;3.05;;
14294;SDS011;7231;59.370;18.016;2023-06-26T00:40:36;5.18;;;3.28;;
14294;SDS011;7231;59.370;18.016;2023-06-26T00:43:04;5.32;;;3.40;;
14294;SDS011;7231;59.370;18.016;2023-06-26T00:45:32;4.10;;;3.33;;
14294;SDS011;7231;59.370;18.016;2023-06-26T00:48:09;7.93;;;3.40;;
14294;SDS011;7231;59.370;18.016;2023-06-26T00:50:39;3.67;;;3.05;;
14294;SDS011;7231;59.370;18.016;2023-06-26T00:53:08;5.20;;;3.70;;
14294;SDS011;7231;59.370;18.016;2023-06-26T00:55:38;4.00;;;3.28;;
14294;SDS011;7231;59.370;18.016;2023-06-26T00:58:06;3.58;;;3.28;;
14294;SDS011;7231;59.370;18.016;2023-06-26T01:00:34;3.55;;;3.10;;
14294;SDS011;7231;59.370;18.016;2023-06-26T01:03:03;5.15;;;3.33;;
14294;SDS011;7231;59.370;18.016;2023-06-26T01:05:31;3.80;;;3.40;;
14294;SDS011;7231;59.370;18.016;2023-06-26T01:07:59;5.95;;;3.38;;
14294;SDS011;7231;59.370;18.016;2023-06-26T01:10:27;5.68;;;3.38;;
14294;SDS011;7231;59.370;18.016;2023-06-26T01:12:57;4.85;;;3.50;;
14294;SDS011;7231;59.370;18.016;2023-06-26T01:15:25;6.18;;;3.25;;
14294;SDS011;7231;59.370;18.016;2023-06-26T01:17:53;4.80;;;3.20;;
14294;SDS011;7231;59.370;18.016;2023-06-26T01:20:30;6.15;;;3.15;;
14294;SDS011;7231;59.370;18.016;2023-06-26T01:23:15;4.20;;;3.13;;
14294;SDS011;7231;59.370;18.016;2023-06-26T01:25:53;4.93;;;3.10;;
14294;SDS011;7231;59.370;18.016;2023-06-26T01:28:32;3.75;;;3.22;;
14294;SDS011;7231;59.370;18.016;2023-06-26T01:31:02;5.72;;;3.50;;
14294;SDS011;7231;59.370;18.016;2023-06-26T01:33:32;3.60;;;3.30;;
14294;SDS011;7231;59.370;18.016;2023-06-26T01:36:00;4.75;;;3.50;;
14294;SDS011;7231;59.370;18.016;2023-06-26T01:38:28;4.13;;;3.45;;
14294;SDS011;7231;59.370;18.016;2023-06-26T01:40:56;6.03;;;4.00;;
14294;SDS011;7231;59.370;18.016;2023-06-26T01:43:25;8.38;;;3.92;;
14294;SDS011;7231;59.370;18.016;2023-06-26T01:45:59;6.10;;;4.00;;
14294;SDS011;7231;59.370;18.016;2023-06-26T01:48:33;4.70;;;3.47;;
14294;SDS011;7231;59.370;18.016;2023-06-26T01:51:06;8.80;;;3.80;;
14294;SDS011;7231;59.370;18.016;2023-06-26T01:53:36;4.95;;;3.75;;
14294;SDS011;7231;59.370;18.016;2023-06-26T01:56:11;5.22;;;3.75;;
14294;SDS011;7231;59.370;18.016;2023-06-26T01:58:43;9.00;;;3.97;;
14294;SDS011;7231;59.370;18.016;2023-06-26T02:01:14;4.80;;;3.28;;
14294;SDS011;7231;59.370;18.016;2023-06-26T02:03:42;5.72;;;3.58;;
14294;SDS011;7231;59.370;18.016;2023-06-26T02:06:11;3.95;;;3.45;;
14294;SDS011;7231;59.370;18.016;2023-06-26T02:08:39;6.38;;;3.33;;
14294;SDS011;7231;59.370;18.016;2023-06-26T02:11:07;6.43;;;3.47;;
14294;SDS011;7231;59.370;18.016;2023-06-26T02:13:35;5.82;;;3.50;;
14294;SDS011;7231;59.370;18.016;2023-06-26T02:16:03;6.00;;;4.30;;
14294;SDS011;7231;59.370;18.016;2023-06-26T02:18:32;4.57;;;3.63;;
14294;SDS011;7231;59.370;18.016;2023-06-26T02:21:00;4.53;;;3.65;;
14294;SDS011;7231;59.370;18.016;2023-06-26T02:23:31;5.07;;;3.95;;
14294;SDS011;7231;59.370;18.016;2023-06-26T02:25:59;4.90;;;3.95;;
14294;SDS011;7231;59.370;18.016;2023-06-26T02:28:27;4.97;;;3.97;;
14294;SDS011;7231;59.370;18.016;2023-06-26T02:30:57;5.57;;;3.80;;
14294;SDS011;7231;59.370;18.016;2023-06-26T02:33:25;8.10;;;4.20;;
14294;SDS011;7231;59.370;18.016;2023-06-26T02:35:54;8.60;;;3.85;;
14294;SDS011;7231;59.370;18.016;2023-06-26T02:38:22;5.95;;;3.88;;
14294;SDS011;7231;59.370;18.016;2023-06-26T02:40:50;4.00;;;3.50;;
14294;SDS011;7231;59.370;18.016;2023-06-26T02:43:18;4.72;;;4.07;;
14294;SDS011;7231;59.370;18.016;2023-06-26T02:45:46;5.68;;;4.15;;
14294;SDS011;7231;59.370;18.016;2023-06-26T02:48:14;5.25;;;3.70;;
14294;SDS011;7231;59.370;18.016;2023-06-26T02:50:42;5.50;;;4.03;;
14294;SDS011;7231;59.370;18.016;2023-06-26T02:53:13;5.88;;;3.78;;
14294;SDS011;7231;59.370;18.016;2023-06-26T02:55:42;4.20;;;3.78;;
14294;SDS011;7231;59.370;18.016;2023-06-26T02:58:10;5.75;;;4.00;;
14294;SDS011;7231;59.370;18.016;2023-06-26T03:00:38;6.88;;;3.70;;
14294;SDS011;7231;59.370;18.016;2023-06-26T03:03:08;6.22;;;3.83;;
14294;SDS011;7231;59.370;18.016;2023-06-26T03:05:36;4.40;;;3.75;;
14294;SDS011;7231;59.370;18.016;2023-06-26T03:08:04;4.30;;;3.65;;
14294;SDS011;7231;59.370;18.016;2023-06-26T03:10:33;5.25;;;4.00;;
14294;SDS011;7231;59.370;18.016;2023-06-26T03:13:02;4.68;;;3.72;;
14294;SDS011;7231;59.370;18.016;2023-06-26T03:15:30;5.82;;;3.80;;
14294;SDS011;7231;59.370;18.016;2023-06-26T03:17:57;5.43;;;3.72;;
14294;SDS011;7231;59.370;18.016;2023-06-26T03:20:26;7.70;;;3.65;;
14294;SDS011;7231;59.370;18.016;2023-06-26T03:22:54;3.88;;;3.47;;
14294;SDS011;7231;59.370;18.016;2023-06-26T03:25:22;3.72;;;3.38;;
14294;SDS011;7231;59.370;18.016;2023-06-26T03:27:51;5.43;;;3.65;;
14294;SDS011;7231;59.370;18.016;2023-06-26T03:30:19;6.60;;;3.97;;
14294;SDS011;7231;59.370;18.016;2023-06-26T03:32:47;5.15;;;3.65;;
14294;SDS011;7231;59.370;18.016;2023-06-26T03:35:23;6.18;;;3.95;;
14294;SDS011;7231;59.370;18.016;2023-06-26T03:37:51;5.65;;;3.75;;
14294;SDS011;7231;59.370;18.016;2023-06-26T03:40:19;4.55;;;3.65;;
14294;SDS011;7231;59.370;18.016;2023-06-26T03:42:49;4.40;;;3.60;;
14294;SDS011;7231;59.370;18.016;2023-06-26T03:45:17;4.07;;;3.25;;
14294;SDS011;7231;59.370;18.016;2023-06-26T03:47:46;4.20;;;3.75;;
14294;SDS011;7231;59.370;18.016;2023-06-26T03:50:16;4.00;;;3.60;;
14294;SDS011;7231;59.370;18.016;2023-06-26T03:52:45;4.75;;;3.60;;
14294;SDS011;7231;59.370;18.016;2023-06-26T03:55:13;5.75;;;3.88;;
14294;SDS011;7231;59.370;18.016;2023-06-26T03:57:44;4.03;;;3.55;;
14294;SDS011;7231;59.370;18.016;2023-06-26T04:00:12;4.07;;;3.67;;
14294;SDS011;7231;59.370;18.016;2023-06-26T04:02:41;7.70;;;3.88;;
14294;SDS011;7231;59.370;18.016;2023-06-26T04:05:10;3.65;;;3.35;;
14294;SDS011;7231;59.370;18.016;2023-06-26T04:07:38;4.72;;;3.60;;
14294;SDS011;7231;59.370;18.016;2023-06-26T04:10:07;4.43;;;3.55;;
14294;SDS011;7231;59.370;18.016;2023-06-26T04:12:36;3.63;;;3.33;;
14294;SDS011;7231;59.370;18.016;2023-06-26T04:15:05;5.00;;;3.83;;
14294;SDS011;7231;59.370;18.016;2023-06-26T04:17:34;3.85;;;3.30;;
14294;SDS011;7231;59.370;18.016;2023-06-26T04:20:02;4.03;;;3.42;;
14294;SDS011;7231;59.370;18.016;2023-06-26T04:22:32;4.13;;;3.60;;
14294;SDS011;7231;59.370;18.016;2023-06-26T04:25:01;5.57;;;3.20;;
14294;SDS011;7231;59.370;18.016;2023-06-26T04:27:32;4.90;;;3.65;;
14294;SDS011;7231;59.370;18.016;2023-06-26T04:30:03;3.90;;;3.50;;
14294;SDS011;7231;59.370;18.016;2023-06-26T04:32:32;3.85;;;3.00;;
14294;SDS011;7231;59.370;18.016;2023-06-26T04:35:00;5.13;;;3.33;;
14294;SDS011;7231;59.370;18.016;2023-06-26T04:37:29;5.18;;;3.05;;
14294;SDS011;7231;59.370;18.016;2023-06-26T04:39:57;4.28;;;3.35;;
14294;SDS011;7231;59.370;18.016;2023-06-26T04:42:25;3.60;;;2.92;;
14294;SDS011;7231;59.370;18.016;2023-06-26T04:44:55;4.10;;;3.47;;
14294;SDS011;7231;59.370;18.016;2023-06-26T04:47:23;5.07;;;3.47;;
14294;SDS011;7231;59.370;18.016;2023-06-26T04:49:51;4.72;;;3.25;;
14294;SDS011;7231;59.370;18.016;2023-06-26T04:52:19;5.72;;;3.55;;
14294;SDS011;7231;59.370;18.016;2023-06-26T04:54:47;4.95;;;3.08;;
14294;SDS011;7231;59.370;18.016;2023-06-26T04:57:15;3.72;;;2.95;;
14294;SDS011;7231;59.370;18.016;2023-06-26T04:59:44;4.68;;;3.30;;
14294;SDS011;7231;59.370;18.016;2023-06-26T05:02:13;5.55;;;3.72;;
14294;SDS011;7231;59.370;18.016;2023-06-26T05:04:41;4.00;;;3.60;;
14294;SDS011;7231;59.370;18.016;2023-06-26T05:07:09;4.47;;;3.40;;
14294;SDS011;7231;59.370;18.016;2023-06-26T05:09:37;5.25;;;3.75;;
14294;SDS011;7231;59.370;18.016;2023-06-26T05:12:06;3.22;;;2.92;;
14294;SDS011;7231;59.370;18.016;2023-06-26T05:14:34;5.68;;;3.58;;
14294;SDS011;7231;59.370;18.016;2023-06-26T05:17:02;6.10;;;3.45;;
14294;SDS011;7231;59.370;18.016;2023-06-26T05:19:32;3.47;;;3.17;;
14294;SDS011;7231;59.370;18.016;2023-06-26T05:22:00;3.67;;;2.97;;
14294;SDS011;7231;59.370;18.016;2023-06-26T05:24:30;3.40;;;3.05;;
14294;SDS011;7231;59.370;18.016;2023-06-26T05:26:58;6.07;;;3.20;;
14294;SDS011;7231;59.370;18.016;2023-06-26T05:29:27;3.60;;;3.30;;
14294;SDS011;7231;59.370;18.016;2023-06-26T05:31:55;3.70;;;3.40;;
14294;SDS011;7231;59.370;18.016;2023-06-26T05:34:24;5.07;;;3.25;;
14294;SDS011;7231;59.370;18.016;2023-06-26T05:36:57;3.47;;;3.17;;
14294;SDS011;7231;59.370;18.016;2023-06-26T05:39:26;3.88;;;3.15;;
14294;SDS011;7231;59.370;18.016;2023-06-26T05:41:55;3.58;;;3.28;;
14294;SDS011;7231;59.370;18.016;2023-06-26T05:44:24;3.58;;;3.25;;
14294;SDS011;7231;59.370;18.016;2023-06-26T05:46:52;5.13;;;3.38;;
14294;SDS011;7231;59.370;18.016;2023-06-26T05:49:20;7.10;;;3.10;;
14294;SDS011;7231;59.370;18.016;2023-06-26T05:51:48;3.65;;;3.03;;
14294;SDS011;7231;59.370;18.016;2023-06-26T05:54:18;4.63;;;3.28;;
14294;SDS011;7231;59.370;18.016;2023-06-26T05:56:46;4.10;;;2.95;;
14294;SDS011;7231;59.370;18.016;2023-06-26T05:59:15;3.58;;;3.05;;
14294;SDS011;7231;59.370;18.016;2023-06-26T06:01:44;7.88;;;3.42;;
14294;SDS011;7231;59.370;18.016;2023-06-26T06:04:13;4.43;;;3.30;;
14294;SDS011;7231;59.370;18.016;2023-06-26T06:06:41;5.25;;;3.15;;
14294;SDS011;7231;59.370;18.016;2023-06-26T06:09:09;6.63;;;2.88;;
14294;SDS011;7231;59.370;18.016;2023-06-26T06:11:38;8.27;;;3.00;;
14294;SDS011;7231;59.370;18.016;2023-06-26T06:14:06;4.60;;;3.03;;
14294;SDS011;7231;59.370;18.016;2023-06-26T06:16:34;6.10;;;3.10;;
14294;SDS011;7231;59.370;18.016;2023-06-26T06:19:02;3.65;;;3.20;;
14294;SDS011;7231;59.370;18.016;2023-06-26T06:21:33;3.08;;;2.45;;
14294;SDS011;7231;59.370;18.016;2023-06-26T06:24:01;3.40;;;2.35;;
14294;SDS011;7231;59.370;18.016;2023-06-26T06:26:29;6.30;;;2.90;;
14294;SDS011;7231;59.370;18.016;2023-06-26T06:28:58;4.95;;;2.58;;
14294;SDS011;7231;59.370;18.016;2023-06-26T06:31:26;4.43;;;2.53;;
14294;SDS011;7231;59.370;18.016;2023-06-26T06:33:55;6.78;;;2.83;;
14294;SDS011;7231;59.370;18.016;2023-06-26T06:36:23;4.78;;;2.50;;
14294;SDS011;7231;59.370;18.016;2023-06-26T06:38:51;4.32;;;2.80;;
14294;SDS011;7231;59.370;18.016;2023-06-26T06:41:19;4.03;;;2.25;;
14294;SDS011;7231;59.370;18.016;2023-06-26T06:43:47;4.15;;;2.10;;
14294;SDS011;7231;59.370;18.016;2023-06-26T06:46:16;2.35;;;2.00;;
14294;SDS011;7231;59.370;18.016;2023-06-26T06:48:44;3.50;;;2.42;;
14294;SDS011;7231;59.370;18.016;2023-06-26T06:51:13;6.10;;;2.30;;
14294;SDS011;7231;59.370;18.016;2023-06-26T06:53:41;2.10;;;1.98;;
14294;SDS011;7231;59.370;18.016;2023-06-26T06:56:09;2.95;;;2.08;;
14294;SDS011;7231;59.370;18.016;2023-06-26T06:58:37;2.90;;;2.10;;
14294;SDS011;7231;59.370;18.016;2023-06-26T07:01:06;3.08;;;2.10;;
14294;SDS011;7231;59.370;18.016;2023-06-26T07:03:36;2.88;;;1.75;;
14294;SDS011;7231;59.370;18.016;2023-06-26T07:06:05;3.97;;;2.15;;
14294;SDS011;7231;59.370;18.016;2023-06-26T07:08:33;2.83;;;2.33;;
14294;SDS011;7231;59.370;18.016;2023-06-26T07:11:01;4.47;;;2.00;;
14294;SDS011;7231;59.370;18.016;2023-06-26T07:13:29;3.28;;;2.13;;
14294;SDS011;7231;59.370;18.016;2023-06-26T07:15:57;2.53;;;2.10;;
14294;SDS011;7231;59.370;18.016;2023-06-26T07:18:25;3.75;;;2.30;;
14294;SDS011;7231;59.370;18.016;2023-06-26T07:20:54;2.67;;;1.88;;
14294;SDS011;7231;59.370;18.016;2023-06-26T07:23:22;3.55;;;1.77;;
14294;SDS011;7231;59.370;18.016;2023-06-26T07:25:50;4.82;;;1.77;;
14294;SDS011;7231;59.370;18.016;2023-06-26T07:28:18;3.95;;;1.98;;
14294;SDS011;7231;59.370;18.016;2023-06-26T07:30:46;3.10;;;2.00;;
14294;SDS011;7231;59.370;18.016;2023-06-26T07:33:15;2.45;;;2.25;;
14294;SDS011;7231;59.370;18.016;2023-06-26T07:35:43;3.40;;;2.45;;
14294;SDS011;7231;59.370;18.016;2023-06-26T07:38:12;2.00;;;1.80;;
14294;SDS011;7231;59.370;18.016;2023-06-26T07:40:40;3.35;;;2.05;;
14294;SDS011;7231;59.370;18.016;2023-06-26T07:43:08;2.40;;;1.85;;
14294;SDS011;7231;59.370;18.016;2023-06-26T07:45:36;4.45;;;2.20;;
14294;SDS011;7231;59.370;18.016;2023-06-26T07:48:05;2.22;;;2.03;;
14294;SDS011;7231;59.370;18.016;2023-06-26T07:50:33;5.78;;;2.17;;
14294;SDS011;7231;59.370;18.016;2023-06-26T07:53:02;3.40;;;1.88;;
14294;SDS011;7231;59.370;18.016;2023-06-26T07:55:33;1.90;;;1.80;;
14294;SDS011;7231;59.370;18.016;2023-06-26T07:58:01;2.30;;;1.73;;
14294;SDS011;7231;59.370;18.016;2023-06-26T08:00:29;6.75;;;2.00;;
14294;SDS011;7231;59.370;18.016;2023-06-26T08:02:57;2.67;;;1.73;;
14294;SDS011;7231;59.370;18.016;2023-06-26T08:05:25;2.05;;;1.50;;
14294;SDS011;7231;59.370;18.016;2023-06-26T08:07:53;3.33;;;1.88;;
14294;SDS011;7231;59.370;18.016;2023-06-26T08:10:21;1.92;;;1.73;;
14294;SDS011;7231;59.370;18.016;2023-06-26T08:12:50;2.53;;;1.67;;
14294;SDS011;7231;59.370;18.016;2023-06-26T08:15:19;2.03;;;1.70;;
14294;SDS011;7231;59.370;18.016;2023-06-26T08:17:47;4.10;;;1.90;;
14294;SDS011;7231;59.370;18.016;2023-06-26T08:20:17;2.33;;;1.70;;
14294;SDS011;7231;59.370;18.016;2023-06-26T08:22:45;3.00;;;1.63;;
14294;SDS011;7231;59.370;18.016;2023-06-26T08:25:15;1.90;;;1.75;;
14294;SDS011;7231;59.370;18.016;2023-06-26T08:27:43;1.88;;;1.58;;
14294;SDS011;7231;59.370;18.016;2023-06-26T08:30:12;2.50;;;1.60;;
14294;SDS011;7231;59.370;18.016;2023-06-26T08:32:41;6.45;;;2.05;;
14294;SDS011;7231;59.370;18.016;2023-06-26T08:35:09;1.90;;;1.75;;
14294;SDS011;7231;59.370;18.016;2023-06-26T08:37:37;1.98;;;1.70;;
14294;SDS011;7231;59.370;18.016;2023-06-26T08:40:05;2.75;;;1.77;;
14294;SDS011;7231;59.370;18.016;2023-06-26T08:42:34;3.72;;;1.73;;
14294;SDS011;7231;59.370;18.016;2023-06-26T08:45:02;3.70;;;1.90;;
14294;SDS011;7231;59.370;18.016;2023-06-26T08:47:32;1.85;;;1.67;;
14294;SDS011;7231;59.370;18.016;2023-06-26T08:50:04;2.08;;;1.65;;
14294;SDS011;7231;59.370;18.016;2023-06-26T08:52:36;3.35;;;1.80;;
14294;SDS011;7231;59.370;18.016;2023-06-26T08:55:09;1.75;;;1.63;;
14294;SDS011;7231;59.370;18.016;2023-06-26T08:57:38;2.80;;;1.70;;
14294;SDS011;7231;59.370;18.016;2023-06-26T09:00:07;1.85;;;1.60;;
14294;SDS011;7231;59.370;18.016;2023-06-26T09:02:38;4.80;;;1.90;;
14294;SDS011;7231;59.370;18.016;2023-06-26T09:05:11;2.42;;;1.80;;
14294;SDS011;7231;59.370;18.016;2023-06-26T09:07:39;2.15;;;1.70;;
14294;SDS011;7231;59.370;18.016;2023-06-26T09:10:07;4.05;;;1.70;;
14294;SDS011;7231;59.370;18.016;2023-06-26T09:12:36;3.80;;;1.50;;
14294;SDS011;7231;59.370;18.016;2023-06-26T09:15:05;3.20;;;1.60;;
14294;SDS011;7231;59.370;18.016;2023-06-26T09:17:34;6.10;;;1.83;;
14294;SDS011;7231;59.370;18.016;2023-06-26T09:20:08;3.92;;;1.88;;
14294;SDS011;7231;59.370;18.016;2023-06-26T09:22:37;1.50;;;1.40;;
14294;SDS011;7231;59.370;18.016;2023-06-26T09:25:06;3.47;;;1.55;;
14294;SDS011;7231;59.370;18.016;2023-06-26T09:27:34;2.97;;;1.70;;
14294;SDS011;7231;59.370;18.016;2023-06-26T09:30:03;1.50;;;1.40;;
14294;SDS011;7231;59.370;18.016;2023-06-26T09:32:33;1.60;;;1.50;;
14294;SDS011;7231;59.370;18.016;2023-06-26T09:35:04;3.65;;;1.50;;
14294;SDS011;7231;59.370;18.016;2023-06-26T09:37:34;2.08;;;1.42;;
14294;SDS011;7231;59.370;18.016;2023-06-26T09:40:02;2.03;;;1.27;;
14294;SDS011;7231;59.370;18.016;2023-06-26T09:42:31;1.70;;;1.60;;
14294;SDS011;7231;59.370;18.016;2023-06-26T09:44:59;1.50;;;1.40;;
14294;SDS011;7231;59.370;18.016;2023-06-26T09:47:29;2.20;;;1.42;;
14294;SDS011;7231;59.370;18.016;2023-06-26T09:49:58;2.83;;;1.52;;
14294;SDS011;7231;59.370;18.016;2023-06-26T09:52:27;4.35;;;2.40;;
14294;SDS011;7231;59.370;18.016;2023-06-26T09:55:07;2.05;;;1.75;;
14294;SDS011;7231;59.370;18.016;2023-06-26T09:57:35;6.03;;;1.80;;
14294;SDS011;7231;59.370;18.016;2023-06-26T10:00:03;5.38;;;1.50;;
14294;SDS011;7231;59.370;18.016;2023-06-26T10:02:31;3.15;;;1.70;;
14294;SDS011;7231;59.370;18.016;2023-06-26T10:05:00;4.53;;;1.50;;
14294;SDS011;7231;59.370;18.016;2023-06-26T10:07:29;1.80;;;1.40;;
14294;SDS011;7231;59.370;18.016;2023-06-26T10:09:57;3.38;;;2.17;;
14294;SDS011;7231;59.370;18.016;2023-06-26T10:12:29;2.28;;;1.38;;
14294;SDS011;7231;59.370;18.016;2023-06-26T10:14:58;3.78;;;1.70;;
14294;SDS011;7231;59.370;18.016;2023-06-26T10:17:27;2.25;;;1.45;;
14294;SDS011;7231;59.370;18.016;2023-06-26T10:19:58;1.88;;;1.50;;
14294;SDS011;7231;59.370;18.016;2023-06-26T10:22:33;2.75;;;2.35;;
14294;SDS011;7231;59.370;18.016;2023-06-26T10:25:05;3.75;;;1.70;;
14294;SDS011;7231;59.370;18.016;2023-06-26T10:27:35;2.97;;;1.73;;
14294;SDS011;7231;59.370;18.016;2023-06-26T10:30:06;2.10;;;1.90;;
14294;SDS011;7231;59.370;18.016;2023-06-26T10:32:39;2.08;;;1.40;;
14294;SDS011;7231;59.370;18.016;2023-06-26T10:35:08;4.18;;;1.35;;
14294;SDS011;7231;59.370;18.016;2023-06-26T10:37:43;1.52;;;1.15;;
14294;SDS011;7231;59.370;18.016;2023-06-26T10:40:12;1.70;;;1.40;;
14294;SDS011;7231;59.370;18.016;2023-06-26T10:42:40;4.57;;;1.27;;
14294;SDS011;7231;59.370;18.016;2023-06-26T10:45:09;1.65;;;1.15;;
14294;SDS011;7231;59.370;18.016;2023-06-26T10:47:39;3.45;;;1.35;;
14294;SDS011;7231;59.370;18.016;2023-06-26T10:50:16;2.60;;;1.80;;
14294;SDS011;7231;59.370;18.016;2023-06-26T10:55:49;2.80;;;1.38;;
14294;SDS011;7231;59.370;18.016;2023-06-26T10:58:26;2.75;;;1.02;;
14294;SDS011;7231;59.370;18.016;2023-06-26T11:01:14;1.50;;;1.23;;
14294;SDS011;7231;59.370;18.016;2023-06-26T11:03:46;2.05;;;1.13;;
14294;SDS011;7231;59.370;18.016;2023-06-26T11:06:17;1.15;;;1.13;;
14294;SDS011;7231;59.370;18.016;2023-06-26T11:08:49;2.47;;;1.10;;
14294;SDS011;7231;59.370;18.016;2023-06-26T11:11:19;2.67;;;1.05;;
14294;SDS011;7231;59.370;18.016;2023-06-26T11:13:48;2.05;;;1.00;;
14294;SDS011;7231;59.370;18.016;2023-06-26T11:16:16;2.72;;;1.10;;
14294;SDS011;7231;59.370;18.016;2023-06-26T11:18:44;1.83;;;1.13;;
14294;SDS011;7231;59.370;18.016;2023-06-26T11:21:12;1.30;;;1.20;;
14294;SDS011;7231;59.370;18.016;2023-06-26T11:23:41;2.67;;;1.17;;
14294;SDS011;7231;59.370;18.016;2023-06-26T11:26:16;1.48;;;1.10;;
14294;SDS011;7231;59.370;18.016;2023-06-26T11:28:48;2.22;;;1.13;;
14294;SDS011;7231;59.370;18.016;2023-06-26T11:31:27;1.15;;;1.05;;
14294;SDS011;7231;59.370;18.016;2023-06-26T11:33:56;1.20;;;1.10;;
14294;SDS011;7231;59.370;18.016;2023-06-26T11:36:25;2.28;;;1.10;;
14294;SDS011;7231;59.370;18.016;2023-06-26T11:38:53;1.85;;;1.00;;
14294;SDS011;7231;59.370;18.016;2023-06-26T11:41:24;0.95;;;0.93;;
14294;SDS011;7231;59.370;18.016;2023-06-26T11:43:53;1.20;;;1.10;;
14294;SDS011;7231;59.370;18.016;2023-06-26T11:46:22;1.35;;;1.10;;
14294;SDS011;7231;59.370;18.016;2023-06-26T11:48:50;2.65;;;1.00;;
14294;SDS011;7231;59.370;18.016;2023-06-26T11:51:18;2.92;;;1.10;;
14294;SDS011;7231;59.370;18.016;2023-06-26T11:53:47;1.00;;;1.00;;
14294;SDS011;7231;59.370;18.016;2023-06-26T11:56:15;0.82;;;0.82;;
14294;SDS011;7231;59.370;18.016;2023-06-26T11:58:59;2.00;;;1.10;;
14294;SDS011;7231;59.370;18.016;2023-06-26T12:01:30;3.03;;;1.10;;
14294;SDS011;7231;59.370;18.016;2023-06-26T12:04:00;1.90;;;0.90;;
14294;SDS011;7231;59.370;18.016;2023-06-26T12:06:31;1.77;;;0.90;;
14294;SDS011;7231;59.370;18.016;2023-06-26T12:09:01;1.42;;;0.90;;
14294;SDS011;7231;59.370;18.016;2023-06-26T12:11:32;2.05;;;1.08;;
14294;SDS011;7231;59.370;18.016;2023-06-26T12:14:04;1.13;;;0.90;;
14294;SDS011;7231;59.370;18.016;2023-06-26T12:16:33;3.63;;;0.85;;
14294;SDS011;7231;59.370;18.016;2023-06-26T12:19:02;4.15;;;1.10;;
14294;SDS011;7231;59.370;18.016;2023-06-26T12:21:43;1.25;;;0.90;;
14294;SDS011;7231;59.370;18.016;2023-06-26T12:24:13;1.30;;;0.90;;
14294;SDS011;7231;59.370;18.016;2023-06-26T12:26:43;1.05;;;0.98;;
14294;SDS011;7231;59.370;18.016;2023-06-26T12:29:14;2.88;;;0.80;;
14294;SDS011;7231;59.370;18.016;2023-06-26T12:31:44;1.70;;;0.93;;
14294;SDS011;7231;59.370;18.016;2023-06-26T12:34:14;2.78;;;0.80;;
14294;SDS011;7231;59.370;18.016;2023-06-26T12:36:45;2.45;;;0.82;;
14294;SDS011;7231;59.370;18.016;2023-06-26T12:39:16;0.82;;;0.82;;
14294;SDS011;7231;59.370;18.016;2023-06-26T12:41:46;1.77;;;0.90;;
14294;SDS011;7231;59.370;18.016;2023-06-26T12:44:25;0.90;;;0.80;;
14294;SDS011;7231;59.370;18.016;2023-06-26T12:46:55;1.00;;;0.85;;
14294;SDS011;7231;59.370;18.016;2023-06-26T12:49:30;0.88;;;0.80;;
14294;SDS011;7231;59.370;18.016;2023-06-26T12:52:00;1.90;;;0.90;;
14294;SDS011;7231;59.370;18.016;2023-06-26T12:54:29;2.83;;;1.23;;
14294;SDS011;7231;59.370;18.016;2023-06-26T12:56:58;3.30;;;0.90;;
14294;SDS011;7231;59.370;18.016;2023-06-26T12:59:27;2.00;;;1.33;;
14294;SDS011;7231;59.370;18.016;2023-06-26T13:01:55;1.67;;;0.75;;
14294;SDS011;7231;59.370;18.016;2023-06-26T13:04:24;1.02;;;0.77;;
14294;SDS011;7231;59.370;18.016;2023-06-26T13:06:52;2.08;;;0.77;;
14294;SDS011;7231;59.370;18.016;2023-06-26T13:09:21;2.08;;;0.73;;
14294;SDS011;7231;59.370;18.016;2023-06-26T13:11:50;1.23;;;1.00;;
14294;SDS011;7231;59.370;18.016;2023-06-26T13:14:18;1.40;;;1.13;;
14294;SDS011;7231;59.370;18.016;2023-06-26T13:16:48;2.72;;;1.10;;
14294;SDS011;7231;59.370;18.016;2023-06-26T13:19:16;1.23;;;0.80;;
14294;SDS011;7231;59.370;18.016;2023-06-26T13:21:44;3.88;;;0.75;;
14294;SDS011;7231;59.370;18.016;2023-06-26T13:24:12;2.53;;;0.95;;
14294;SDS011;7231;59.370;18.016;2023-06-26T13:26:40;1.55;;;0.80;;
14294;SDS011;7231;59.370;18.016;2023-06-26T13:29:08;1.40;;;0.82;;
14294;SDS011;7231;59.370;18.016;2023-06-26T13:31:35;2.30;;;1.00;;
14294;SDS011;7231;59.370;18.016;2023-06-26T13:34:06;1.02;;;0.90;;
14294;SDS011;7231;59.370;18.016;2023-06-26T13:36:34;4.15;;;1.30;;
14294;SDS011;7231;59.370;18.016;2023-06-26T13:39:04;2.90;;;1.38;;
14294;SDS011;7231;59.370;18.016;2023-06-26T13:41:31;3.20;;;0.88;;
14294;SDS011;7231;59.370;18.016;2023-06-26T13:43:59;4.47;;;1.00;;
14294;SDS011;7231;59.370;18.016;2023-06-26T13:46:42;1.48;;;1.00;;
14294;SDS011;7231;59.370;18.016;2023-06-26T13:49:11;1.60;;;1.10;;
14294;SDS011;7231;59.370;18.016;2023-06-26T13:51:39;3.33;;;0.88;;
14294;SDS011;7231;59.370;18.016;2023-06-26T13:54:12;2.75;;;1.15;;
14294;SDS011;7231;59.370;18.016;2023-06-26T13:56:40;5.78;;;1.30;;
14294;SDS011;7231;59.370;18.016;2023-06-26T13:59:08;2.35;;;1.40;;
14294;SDS011;7231;59.370;18.016;2023-06-26T14:01:36;2.95;;;1.10;;
14294;SDS011;7231;59.370;18.016;2023-06-26T14:04:05;1.77;;;1.05;;
14294;SDS011;7231;59.370;18.016;2023-06-26T14:06:34;4.53;;;1.10;;
14294;SDS011;7231;59.370;18.016;2023-06-26T14:09:02;2.85;;;1.05;;
14294;SDS011;7231;59.370;18.016;2023-06-26T14:11:30;1.13;;;1.00;;
14294;SDS011;7231;59.370;18.016;2023-06-26T14:13:59;1.30;;;1.08;;
14294;SDS011;7231;59.370;18.016;2023-06-26T14:16:27;4.57;;;1.25;;
14294;SDS011;7231;59.370;18.016;2023-06-26T14:18:56;1.15;;;1.00;;
14294;SDS011;7231;59.370;18.016;2023-06-26T14:21:24;1.38;;;1.00;;
14294;SDS011;7231;59.370;18.016;2023-06-26T14:23:54;2.47;;;1.10;;
14294;SDS011;7231;59.370;18.016;2023-06-26T14:26:22;2.25;;;1.00;;
14294;SDS011;7231;59.370;18.016;2023-06-26T14:28:50;2.35;;;1.08;;
14294;SDS011;7231;59.370;18.016;2023-06-26T14:31:20;3.17;;;1.30;;
14294;SDS011;7231;59.370;18.016;2023-06-26T14:33:49;1.42;;;1.17;;
14294;SDS011;7231;59.370;18.016;2023-06-26T14:36:16;1.83;;;1.20;;
14294;SDS011;7231;59.370;18.016;2023-06-26T14:38:45;2.03;;;1.27;;
14294;SDS011;7231;59.370;18.016;2023-06-26T14:41:15;1.48;;;1.38;;
14294;SDS011;7231;59.370;18.016;2023-06-26T14:43:43;1.40;;;1.30;;
14294;SDS011;7231;59.370;18.016;2023-06-26T14:46:12;6.10;;;1.27;;
14294;SDS011;7231;59.370;18.016;2023-06-26T14:48:41;1.55;;;1.20;;
14294;SDS011;7231;59.370;18.016;2023-06-26T14:51:09;1.00;;;1.00;;
14294;SDS011;7231;59.370;18.016;2023-06-26T14:53:37;2.10;;;1.10;;
14294;SDS011;7231;59.370;18.016;2023-06-26T14:56:04;2.58;;;1.30;;
14294;SDS011;7231;59.370;18.016;2023-06-26T14:58:35;1.30;;;1.20;;
14294;SDS011;7231;59.370;18.016;2023-06-26T15:01:03;2.28;;;1.15;;
14294;SDS011;7231;59.370;18.016;2023-06-26T15:03:31;2.83;;;1.40;;